createdAt,value
2022-08-22T00:00:23.171Z,18.88
2022-08-22T00:02:52.599Z,24.57
2022-08-22T00:03:08.536Z,18.91
2022-08-22T00:05:58.761Z,18.85
2022-08-22T00:08:34.828Z,18.78
2022-08-22T00:11:11.917Z,18.72
2022-08-22T00:13:46.497Z,18.64
2022-08-22T00:16:19.052Z,18.58
2022-08-22T00:18:56.893Z,18.52
2022-08-22T00:21:31.863Z,18.48
2022-08-22T00:24:13.339Z,18.49
2022-08-22T00:26:46.966Z,18.48
2022-08-22T00:29:18.579Z,18.47
2022-08-22T00:31:49.940Z,18.57
2022-08-22T00:34:26.442Z,18.64
2022-08-22T00:37:00.902Z,18.74
2022-08-22T00:39:35.118Z,18.81
2022-08-22T00:42:31.993Z,18.70
2022-08-22T00:45:40.414Z,18.80
2022-08-22T00:48:28.690Z,18.90
2022-08-22T00:51:21.199Z,18.90
2022-08-22T00:53:54.208Z,18.83
2022-08-22T00:56:39.268Z,18.90
2022-08-22T00:59:24.272Z,18.84
2022-08-22T01:02:02.303Z,18.87
2022-08-22T01:04:48.261Z,18.99
2022-08-22T01:07:40.812Z,19.08
2022-08-22T01:10:29.309Z,19.13
2022-08-22T01:13:25.038Z,19.13
2022-08-22T01:16:05.628Z,18.71
2022-08-22T01:18:57.221Z,18.62
2022-08-22T01:21:55.736Z,18.50
2022-08-22T01:25:20.906Z,18.21
2022-08-22T01:28:19.945Z,18.39
2022-08-22T01:31:33.916Z,18.54
2022-08-22T01:34:36.941Z,18.52
2022-08-22T01:37:27.709Z,18.39
2022-08-22T01:40:25.820Z,18.36
2022-08-22T01:43:08.861Z,18.09
2022-08-22T01:46:05.313Z,17.98
2022-08-22T01:48:40.697Z,18.11
2022-08-22T01:51:21.068Z,18.12
2022-08-22T01:53:59.324Z,18.21
2022-08-22T01:56:32.876Z,18.11
2022-08-22T01:59:03.439Z,18.00
2022-08-22T02:01:43.809Z,17.95
2022-08-22T02:04:19.383Z,17.97
2022-08-22T02:06:59.027Z,18.08
2022-08-22T02:09:40.905Z,18.12
2022-08-22T02:12:26.779Z,17.97
2022-08-22T02:15:03.944Z,17.87
2022-08-22T02:17:35.632Z,17.90
2022-08-22T02:20:11.384Z,17.92
2022-08-22T02:22:52.782Z,18.07
2022-08-22T02:25:26.482Z,18.11
2022-08-22T02:27:59.834Z,18.07
2022-08-22T02:30:29.247Z,18.06
2022-08-22T02:33:03.406Z,17.87
2022-08-22T02:35:35.290Z,17.82
2022-08-22T02:38:13.171Z,17.83
2022-08-22T02:40:47.078Z,17.71
2022-08-22T02:43:20.182Z,17.77
2022-08-22T02:45:53.916Z,17.85
2022-08-22T02:48:35.525Z,17.93
2022-08-22T02:51:12.522Z,17.95
2022-08-22T02:53:54.116Z,17.98
2022-08-22T02:56:27.925Z,17.98
2022-08-22T02:59:00.118Z,17.97
2022-08-22T03:01:40.735Z,17.97
2022-08-22T03:04:51.928Z,17.97
2022-08-22T03:07:34.469Z,18.07
2022-08-22T03:10:14.565Z,18.20
2022-08-22T03:12:51.942Z,18.21
2022-08-22T03:15:27.171Z,18.14
2022-08-22T03:18:01.048Z,18.11
2022-08-22T03:20:55.684Z,18.00
2022-08-22T03:23:26.293Z,17.77
2022-08-22T03:26:01.828Z,17.61
2022-08-22T03:28:59.228Z,17.42
2022-08-22T03:31:29.743Z,17.21
2022-08-22T03:34:18.781Z,17.13
2022-08-22T03:36:48.990Z,17.21
2022-08-22T03:39:23.602Z,17.20
2022-08-22T03:42:26.160Z,17.09
2022-08-22T03:45:18.973Z,16.90
2022-08-22T03:48:04.521Z,17.01
2022-08-22T03:51:07.964Z,16.88
2022-08-22T03:54:06.056Z,16.64
2022-08-22T03:57:18.416Z,16.46
2022-08-22T04:00:26.203Z,16.51
2022-08-22T04:03:25.397Z,16.62
2022-08-22T04:06:12.707Z,16.72
2022-08-22T04:09:17.102Z,16.85
2022-08-22T04:12:18.525Z,16.86
2022-08-22T04:15:08.180Z,16.94
2022-08-22T04:17:59.877Z,16.92
2022-08-22T04:20:53.905Z,16.87
2022-08-22T04:24:00.641Z,16.83
2022-08-22T04:26:38.263Z,16.84
2022-08-22T04:29:13.520Z,16.84
2022-08-22T04:31:48.028Z,16.87
2022-08-22T04:34:24.880Z,16.63
2022-08-22T04:36:57.913Z,16.47
2022-08-22T04:39:35.606Z,16.30
2022-08-22T04:42:31.603Z,16.38
2022-08-22T04:45:04.522Z,16.53
2022-08-22T04:47:37.656Z,16.61
2022-08-22T04:50:14.781Z,16.67
2022-08-22T04:52:57.455Z,16.84
2022-08-22T04:55:34.059Z,16.81
2022-08-22T04:58:22.691Z,16.88
2022-08-22T05:00:57.945Z,16.94
2022-08-22T05:03:28.710Z,16.95
2022-08-22T05:06:01.327Z,16.88
2022-08-22T05:08:33.644Z,16.68
2022-08-22T05:11:03.444Z,16.57
2022-08-22T05:13:34.792Z,16.52
2022-08-22T05:16:06.897Z,16.45
2022-08-22T05:18:40.782Z,16.42
2022-08-22T05:21:13.888Z,16.49
2022-08-22T05:23:45.141Z,16.54
2022-08-22T05:26:14.968Z,16.51
2022-08-22T05:28:51.307Z,16.54
2022-08-22T05:31:27.531Z,16.58
2022-08-22T05:33:59.323Z,16.61
2022-08-22T05:36:32.060Z,16.81
2022-08-22T05:39:03.501Z,16.75
2022-08-22T05:41:36.916Z,16.76
2022-08-22T05:44:05.840Z,16.84
2022-08-22T05:46:43.791Z,16.99
2022-08-22T05:49:19.471Z,17.11
2022-08-22T05:52:06.813Z,17.22
2022-08-22T05:54:43.208Z,17.30
2022-08-22T05:57:22.197Z,17.33
2022-08-22T05:59:58.924Z,17.33
2022-08-22T06:02:40.468Z,17.38
2022-08-22T06:05:12.124Z,17.44
2022-08-22T06:07:45.974Z,17.52
2022-08-22T06:10:21.713Z,17.62
2022-08-22T06:12:56.428Z,17.74
2022-08-22T06:15:34.163Z,17.83
2022-08-22T06:18:05.003Z,17.94
2022-08-22T06:20:39.127Z,18.07
2022-08-22T06:23:11.693Z,18.17
2022-08-22T06:25:43.073Z,18.27
2022-08-22T06:28:14.952Z,18.35
2022-08-22T06:30:46.543Z,18.44
2022-08-22T06:33:19.136Z,18.54
2022-08-22T06:36:07.776Z,18.64
2022-08-22T06:38:55.478Z,18.73
2022-08-22T06:41:29.658Z,18.85
2022-08-22T06:43:59.097Z,19.03
2022-08-22T06:46:29.662Z,19.14
2022-08-22T06:49:00.748Z,19.24
2022-08-22T06:51:29.439Z,19.33
2022-08-22T06:54:04.416Z,19.40
2022-08-22T06:56:36.495Z,19.46
2022-08-22T06:59:10.284Z,19.54
2022-08-22T07:01:45.436Z,19.64
2022-08-22T07:04:13.137Z,19.74
2022-08-22T07:06:43.777Z,19.81
2022-08-22T07:09:21.295Z,19.95
2022-08-22T07:11:49.212Z,19.99
2022-08-22T07:14:25.476Z,20.12
2022-08-22T07:16:56.939Z,20.24
2022-08-22T07:19:27.270Z,20.32
2022-08-22T07:21:56.484Z,20.42
2022-08-22T07:24:29.509Z,20.64
2022-08-22T07:27:08.795Z,20.73
2022-08-22T07:29:46.632Z,20.83
2022-08-22T07:32:19.034Z,21.04
2022-08-22T07:35:08.516Z,21.26
2022-08-22T07:37:49.992Z,21.30
2022-08-22T07:40:27.075Z,21.35
2022-08-22T07:43:01.056Z,21.40
2022-08-22T07:45:41.254Z,21.44
2022-08-22T07:48:26.010Z,21.59
2022-08-22T07:51:07.807Z,21.67
2022-08-22T07:53:40.333Z,21.73
2022-08-22T07:56:15.449Z,21.76
2022-08-22T07:58:45.534Z,21.86
2022-08-22T08:01:18.905Z,21.95
2022-08-22T08:03:51.260Z,22.05
2022-08-22T08:06:19.001Z,22.21
2022-08-22T08:08:46.900Z,22.35
2022-08-22T08:11:19.244Z,22.49
2022-08-22T08:13:51.399Z,22.43
2022-08-22T08:16:22.674Z,22.50
2022-08-22T08:18:53.376Z,22.64
2022-08-22T08:21:30.142Z,22.69
2022-08-22T08:23:59.141Z,22.80
2022-08-22T08:26:34.232Z,22.96
2022-08-22T08:29:03.552Z,23.11
2022-08-22T08:31:35.330Z,23.29
2022-08-22T08:34:07.887Z,23.53
2022-08-22T08:36:40.416Z,23.64
2022-08-22T08:39:20.501Z,23.89
2022-08-22T08:42:11.516Z,24.03
2022-08-22T08:45:01.276Z,24.16
2022-08-22T08:48:08.716Z,24.20
2022-08-22T08:50:59.266Z,24.28
2022-08-22T08:53:57.943Z,24.42
2022-08-22T08:56:36.527Z,24.54
2022-08-22T08:59:13.361Z,24.67
2022-08-22T09:02:20.512Z,24.77
2022-08-22T09:05:30.692Z,24.89
2022-08-22T09:08:21.085Z,25.04
2022-08-22T09:11:25.245Z,25.18
2022-08-22T09:14:12.258Z,25.31
2022-08-22T09:17:02.119Z,25.47
2022-08-22T09:20:15.484Z,25.53
2022-08-22T09:23:34.749Z,25.62
2022-08-22T09:26:12.327Z,25.76
2022-08-22T09:28:44.615Z,25.91
2022-08-22T09:31:47.806Z,25.97
2022-08-22T09:34:28.464Z,26.10
2022-08-22T09:37:14.100Z,26.24
2022-08-22T09:39:51.998Z,26.31
2022-08-22T09:42:24.698Z,26.40
2022-08-22T09:45:29.581Z,26.63
2022-08-22T09:48:07.635Z,26.78
2022-08-22T09:51:08.266Z,26.99
2022-08-22T09:53:59.765Z,27.18
2022-08-22T09:56:37.899Z,27.27
2022-08-22T09:59:12.989Z,27.44
2022-08-22T10:01:51.086Z,27.53
2022-08-22T10:04:45.850Z,27.59
2022-08-22T10:07:32.741Z,27.76
2022-08-22T10:10:15.405Z,27.83
2022-08-22T10:12:53.264Z,27.94
2022-08-22T10:15:29.488Z,28.00
2022-08-22T10:18:06.568Z,28.06
2022-08-22T10:20:51.289Z,28.21
2022-08-22T10:23:25.143Z,28.28
2022-08-22T10:25:55.939Z,28.31
2022-08-22T10:28:39.859Z,28.37
2022-08-22T10:31:23.387Z,28.54
2022-08-22T10:34:00.159Z,28.74
2022-08-22T10:36:35.373Z,28.89
2022-08-22T10:39:11.609Z,29.12
2022-08-22T10:42:03.101Z,29.11
2022-08-22T10:44:39.667Z,29.15
2022-08-22T10:47:15.085Z,29.18
2022-08-22T10:49:51.450Z,29.42
2022-08-22T10:52:24.166Z,29.50
2022-08-22T10:54:59.003Z,29.53
2022-08-22T10:57:42.506Z,29.79
2022-08-22T11:00:22.399Z,30.00
2022-08-22T11:03:02.965Z,30.31
2022-08-22T11:05:39.313Z,30.50
2022-08-22T11:08:37.895Z,30.63
2022-08-22T11:11:24.178Z,30.91
2022-08-22T11:14:20.902Z,31.23
2022-08-22T11:16:58.074Z,31.05
2022-08-22T11:19:44.772Z,31.33
2022-08-22T11:22:31.276Z,31.72
2022-08-22T11:25:29.267Z,32.22
2022-08-22T11:28:32.215Z,32.72
2022-08-22T11:31:08.523Z,32.82
2022-08-22T11:33:46.991Z,32.77
2022-08-22T11:36:35.714Z,32.60
2022-08-22T11:39:19.461Z,32.46
2022-08-22T11:41:56.032Z,32.16
2022-08-22T11:44:31.058Z,31.57
2022-08-22T11:47:02.647Z,31.20
2022-08-22T11:49:46.423Z,30.90
2022-08-22T11:52:27.645Z,30.53
2022-08-22T11:55:18.104Z,30.45
2022-08-22T11:57:49.707Z,31.00
2022-08-22T12:00:28.716Z,31.42
2022-08-22T12:03:16.677Z,32.00
2022-08-22T12:05:48.714Z,32.66
2022-08-22T12:08:28.110Z,33.20
2022-08-22T12:11:03.377Z,33.43
2022-08-22T12:13:39.200Z,33.92
2022-08-22T12:16:19.210Z,33.93
2022-08-22T12:18:55.737Z,34.36
2022-08-22T12:21:44.162Z,34.91
2022-08-22T12:24:41.628Z,35.63
2022-08-22T12:27:32.000Z,35.37
2022-08-22T12:30:21.695Z,35.17
2022-08-22T12:33:24.461Z,34.85
2022-08-22T12:36:02.264Z,35.17
2022-08-22T12:38:57.288Z,35.52
2022-08-22T12:41:46.770Z,35.90
2022-08-22T12:44:42.855Z,36.65
2022-08-22T12:47:25.982Z,36.41
2022-08-22T12:50:19.444Z,37.12
2022-08-22T12:53:01.226Z,37.96
2022-08-22T12:55:46.692Z,37.83
2022-08-22T12:58:33.105Z,36.86
2022-08-22T13:01:05.521Z,36.29
2022-08-22T13:03:37.938Z,35.78
2022-08-22T13:06:53.878Z,37.03
2022-08-22T13:09:28.885Z,38.42
2022-08-22T13:12:05.219Z,39.48
2022-08-22T13:14:34.991Z,40.10
2022-08-22T13:17:10.704Z,40.06
2022-08-22T13:20:00.457Z,40.69
2022-08-22T13:22:33.624Z,40.58
2022-08-22T13:25:08.625Z,40.65
2022-08-22T13:27:51.311Z,40.68
2022-08-22T13:30:34.455Z,41.84
2022-08-22T13:33:09.948Z,42.36
2022-08-22T13:35:44.710Z,42.16
2022-08-22T13:38:26.610Z,42.25
2022-08-22T13:40:56.429Z,42.53
2022-08-22T13:43:27.996Z,42.47
2022-08-22T13:46:01.717Z,43.16
2022-08-22T13:48:32.379Z,42.48
2022-08-22T13:51:08.216Z,42.87
2022-08-22T13:53:46.394Z,43.53
2022-08-22T13:56:32.661Z,44.10
2022-08-22T13:59:07.228Z,44.18
2022-08-22T14:01:45.904Z,45.17
2022-08-22T14:04:32.102Z,45.42
2022-08-22T14:07:24.567Z,45.94
2022-08-22T14:09:57.871Z,46.79
2022-08-22T14:12:33.427Z,46.36
2022-08-22T14:15:07.820Z,47.20
2022-08-22T14:17:42.714Z,47.55
2022-08-22T14:20:32.016Z,48.05
2022-08-22T14:23:04.610Z,47.66
2022-08-22T14:25:38.812Z,45.82
2022-08-22T14:28:09.930Z,44.55
2022-08-22T14:30:54.597Z,42.97
2022-08-22T14:33:27.828Z,41.65
2022-08-22T14:36:00.412Z,40.03
2022-08-22T14:38:37.602Z,39.03
2022-08-22T14:41:11.069Z,39.96
2022-08-22T14:43:50.681Z,41.45
2022-08-22T14:46:26.603Z,42.44
2022-08-22T14:49:25.395Z,42.44
2022-08-22T14:51:59.953Z,41.57
2022-08-22T14:54:29.262Z,41.49
2022-08-22T14:57:00.657Z,42.35
2022-08-22T14:59:39.376Z,43.58
2022-08-22T15:02:10.804Z,44.84
2022-08-22T15:04:41.443Z,45.06
2022-08-22T15:07:11.456Z,46.16
2022-08-22T15:09:43.884Z,47.10
2022-08-22T15:12:26.878Z,48.00
2022-08-22T15:14:57.213Z,47.82
2022-08-22T15:17:38.690Z,47.47
2022-08-22T15:20:12.972Z,47.95
2022-08-22T15:22:45.484Z,47.70
2022-08-22T15:25:18.099Z,47.14
2022-08-22T15:27:54.921Z,48.16
2022-08-22T15:30:36.235Z,48.46
2022-08-22T15:33:18.885Z,47.53
2022-08-22T15:35:47.192Z,47.19
2022-08-22T15:38:32.701Z,47.24
2022-08-22T15:41:40.839Z,47.34
2022-08-22T15:44:31.012Z,47.62
2022-08-22T15:47:25.848Z,47.45
2022-08-22T15:50:00.529Z,48.03
2022-08-22T15:52:30.989Z,48.54
2022-08-22T15:55:29.237Z,49.29
2022-08-22T15:58:08.377Z,47.60
2022-08-22T16:00:43.299Z,47.73
2022-08-22T16:03:24.280Z,47.92
2022-08-22T16:05:55.711Z,48.32
2022-08-22T16:08:29.572Z,48.61
2022-08-22T16:11:22.712Z,49.14
2022-08-22T16:14:22.376Z,49.64
2022-08-22T16:16:58.301Z,49.51
2022-08-22T16:19:27.166Z,50.05
2022-08-22T16:22:15.972Z,50.21
2022-08-22T16:25:02.712Z,50.13
2022-08-22T16:27:30.807Z,50.25
2022-08-22T16:30:16.220Z,50.13
2022-08-22T16:32:57.140Z,50.44
2022-08-22T16:36:10.737Z,49.94
2022-08-22T16:38:44.373Z,50.17
2022-08-22T16:41:26.828Z,50.33
2022-08-22T16:44:14.036Z,50.45
2022-08-22T16:46:46.419Z,50.15
2022-08-22T16:49:28.587Z,49.74
2022-08-22T16:52:33.812Z,49.26
2022-08-22T16:55:03.485Z,48.71
2022-08-22T16:57:44.471Z,48.41
2022-08-22T17:00:32.936Z,48.22
2022-08-22T17:03:11.383Z,47.89
2022-08-22T17:05:51.647Z,47.41
2022-08-22T17:08:45.414Z,47.20
2022-08-22T17:11:25.348Z,46.83
2022-08-22T17:14:06.843Z,46.57
2022-08-22T17:16:54.034Z,45.60
2022-08-22T17:19:39.651Z,44.92
2022-08-22T17:22:20.401Z,44.22
2022-08-22T17:24:56.055Z,43.45
2022-08-22T17:27:31.274Z,42.62
2022-08-22T17:30:03.782Z,42.45
2022-08-22T17:32:42.222Z,42.13
2022-08-22T17:35:26.412Z,41.47
2022-08-22T17:38:09.672Z,41.30
2022-08-22T17:40:42.605Z,41.01
2022-08-22T17:43:48.772Z,40.79
2022-08-22T17:46:35.961Z,40.25
2022-08-22T17:49:15.132Z,39.53
2022-08-22T17:51:50.374Z,39.01
2022-08-22T17:54:29.690Z,38.47
2022-08-22T17:57:05.826Z,38.10
2022-08-22T17:59:40.720Z,37.69
2022-08-22T18:02:16.140Z,36.74
2022-08-22T18:04:50.304Z,35.84
2022-08-22T18:07:33.427Z,34.79
2022-08-22T18:10:14.359Z,33.80
2022-08-22T18:12:51.683Z,33.13
2022-08-22T18:15:24.041Z,32.66
2022-08-22T18:17:57.923Z,32.08
2022-08-22T18:20:31.179Z,31.54
2022-08-22T18:23:03.201Z,31.03
2022-08-22T18:25:42.460Z,30.67
2022-08-22T18:28:22.168Z,30.37
2022-08-22T18:30:57.580Z,29.82
2022-08-22T18:33:34.525Z,29.48
2022-08-22T18:36:10.368Z,29.03
2022-08-22T18:38:49.865Z,28.67
2022-08-22T18:41:28.252Z,28.38
2022-08-22T18:43:59.845Z,28.17
2022-08-22T18:46:43.084Z,27.91
2022-08-22T18:49:28.063Z,27.75
2022-08-22T18:52:15.588Z,27.56
2022-08-22T18:54:56.077Z,27.28
2022-08-22T18:57:42.475Z,27.12
2022-08-22T19:00:16.575Z,27.00
2022-08-22T19:03:08.065Z,26.83
2022-08-22T19:06:02.548Z,26.55
2022-08-22T19:08:53.601Z,26.26
2022-08-22T19:11:37.230Z,26.05
2022-08-22T19:14:30.179Z,25.88
2022-08-22T19:17:24.897Z,25.75
2022-08-22T19:20:18.184Z,25.71
2022-08-22T19:22:51.147Z,25.53
2022-08-22T19:25:26.751Z,25.46
2022-08-22T19:28:23.508Z,25.36
2022-08-22T19:30:53.458Z,25.14
2022-08-22T19:33:34.770Z,25.11
2022-08-22T19:36:09.506Z,24.92
2022-08-22T19:38:59.780Z,24.71
2022-08-22T19:41:52.767Z,24.56
2022-08-22T19:44:42.086Z,24.45
2022-08-22T19:47:27.052Z,24.37
2022-08-22T19:50:01.791Z,24.28
2022-08-22T19:52:47.560Z,24.09
2022-08-22T19:55:23.376Z,23.92
2022-08-22T19:58:02.273Z,23.84
2022-08-22T20:00:50.314Z,23.75
2022-08-22T20:03:32.453Z,23.65
2022-08-22T20:06:13.785Z,23.53
2022-08-22T20:09:18.344Z,23.45
2022-08-22T20:11:53.744Z,23.36
2022-08-22T20:14:30.693Z,23.24
2022-08-22T20:17:03.361Z,23.16
2022-08-22T20:20:16.455Z,23.09
2022-08-22T20:22:41.551Z,23.01
2022-08-22T20:25:16.990Z,22.89
2022-08-22T20:28:03.671Z,22.81
2022-08-22T20:30:38.543Z,22.76
2022-08-22T20:33:08.992Z,22.72
2022-08-22T20:35:42.592Z,22.63
2022-08-22T20:38:14.201Z,22.53
2022-08-22T20:40:56.358Z,22.43
2022-08-22T20:43:34.279Z,22.35
2022-08-22T20:46:18.840Z,22.32
2022-08-22T20:48:48.792Z,22.30
2022-08-22T20:51:23.839Z,22.26
2022-08-22T20:53:54.172Z,22.24
2022-08-22T20:56:46.066Z,22.19
2022-08-22T20:59:29.782Z,22.09
2022-08-22T21:02:05.471Z,22.03
2022-08-22T21:04:42.784Z,21.94
2022-08-22T21:07:12.068Z,21.87
2022-08-22T21:09:57.454Z,21.82
2022-08-22T21:12:26.260Z,21.74
2022-08-22T21:14:53.867Z,21.74
2022-08-22T21:17:25.916Z,21.75
2022-08-22T21:19:54.322Z,21.74
2022-08-22T21:22:32.662Z,21.71
2022-08-22T21:25:01.662Z,21.67
2022-08-22T21:27:31.976Z,21.68
2022-08-22T21:30:01.008Z,21.61
2022-08-22T21:32:34.389Z,21.51
2022-08-22T21:35:02.625Z,21.43
2022-08-22T21:37:37.237Z,21.40
2022-08-22T21:40:14.597Z,21.34
2022-08-22T21:42:45.422Z,21.36
2022-08-22T21:45:26.588Z,21.35
2022-08-22T21:47:55.722Z,21.41
2022-08-22T21:50:31.636Z,21.45
2022-08-22T21:53:10.184Z,21.37
2022-08-22T21:55:42.741Z,21.29
2022-08-22T21:58:36.030Z,21.27
2022-08-22T22:01:28.297Z,21.11
2022-08-22T22:03:56.443Z,21.02
2022-08-22T22:06:24.082Z,20.92
2022-08-22T22:08:53.020Z,20.86
2022-08-22T22:11:20.824Z,20.72
2022-08-22T22:13:48.891Z,20.63
2022-08-22T22:16:22.749Z,20.55
2022-08-22T22:18:50.371Z,20.51
2022-08-22T22:21:18.091Z,20.53
2022-08-22T22:23:45.789Z,20.59
2022-08-22T22:26:15.298Z,20.66
2022-08-22T22:28:47.711Z,20.61
2022-08-22T22:31:18.127Z,20.54
2022-08-22T22:33:46.370Z,20.64
2022-08-22T22:36:17.397Z,20.74
2022-08-22T22:38:45.479Z,20.79
2022-08-22T22:41:14.841Z,20.75
2022-08-22T22:43:43.139Z,20.61
2022-08-22T22:46:10.738Z,20.47
2022-08-22T22:48:38.329Z,20.29
2022-08-22T22:51:08.648Z,20.17
2022-08-22T22:53:40.140Z,20.07
2022-08-22T22:56:12.797Z,20.04
2022-08-22T22:58:42.311Z,19.97
2022-08-22T23:01:11.824Z,19.94
2022-08-22T23:03:39.742Z,19.97
2022-08-22T23:06:12.143Z,19.94
2022-08-22T23:08:39.845Z,19.92
2022-08-22T23:11:10.799Z,19.84
2022-08-22T23:13:39.736Z,19.71
2022-08-22T23:16:14.445Z,19.72
2022-08-22T23:18:42.948Z,19.75
2022-08-22T23:21:11.777Z,19.86
2022-08-22T23:23:39.796Z,19.86
2022-08-22T23:26:07.425Z,19.73
2022-08-22T23:28:35.031Z,19.74
2022-08-22T23:31:17.738Z,19.63
2022-08-22T23:33:46.524Z,19.62
2022-08-22T23:36:16.775Z,19.53
2022-08-22T23:38:45.344Z,19.44
2022-08-22T23:41:15.012Z,19.46
2022-08-22T23:43:44.522Z,19.46
2022-08-22T23:46:14.941Z,19.49
2022-08-22T23:48:43.175Z,19.54
2022-08-22T23:51:11.833Z,19.70
2022-08-22T23:53:39.933Z,19.75
2022-08-22T23:56:19.799Z,19.75
2022-08-22T23:58:49.085Z,19.77
